createdAt,value
2019-02-18T00:02:11.977Z,2.13
2019-02-18T00:05:00.240Z,2.80
2019-02-18T00:07:48.268Z,3.40
2019-02-18T00:10:36.202Z,3.60
2019-02-18T00:13:24.209Z,3.60
2019-02-18T00:16:12.867Z,3.50
2019-02-18T00:19:00.986Z,3.40
2019-02-18T00:21:49.394Z,3.67
2019-02-18T00:24:37.530Z,3.90
2019-02-18T00:27:25.735Z,3.73
2019-02-18T00:30:14.090Z,3.20
2019-02-18T00:33:01.861Z,3.60
2019-02-18T00:35:49.967Z,3.60
2019-02-18T00:38:38.140Z,3.23
2019-02-18T00:41:26.101Z,3.47
2019-02-18T00:44:14.489Z,3.30
2019-02-18T00:47:02.099Z,2.60
2019-02-18T00:49:50.006Z,2.77
2019-02-18T00:52:38.159Z,3.17
2019-02-18T00:55:26.220Z,3.00
2019-02-18T00:58:14.862Z,2.57
2019-02-18T01:01:02.816Z,2.50
2019-02-18T01:03:50.726Z,2.27
2019-02-18T01:06:38.739Z,1.87
2019-02-18T01:09:26.765Z,1.77
2019-02-18T01:12:14.721Z,1.90
2019-02-18T01:15:02.914Z,2.20
2019-02-18T01:17:51.179Z,3.57
2019-02-18T01:20:39.009Z,2.80
2019-02-18T01:23:26.789Z,2.73
2019-02-18T01:26:14.610Z,3.37
2019-02-18T01:29:02.630Z,3.50
2019-02-18T01:31:50.544Z,3.20
2019-02-18T01:34:38.637Z,2.80
2019-02-18T01:37:26.784Z,2.80
2019-02-18T01:40:15.397Z,3.33
2019-02-18T01:43:03.430Z,2.80
2019-02-18T01:45:51.512Z,2.93
2019-02-18T01:48:39.355Z,3.67
2019-02-18T01:51:27.276Z,3.40
2019-02-18T01:54:15.383Z,3.67
2019-02-18T01:57:03.344Z,3.90
2019-02-18T01:59:50.891Z,3.37
2019-02-18T02:02:38.870Z,3.67
2019-02-18T02:05:26.850Z,3.30
2019-02-18T02:08:14.379Z,3.33
2019-02-18T02:11:02.452Z,3.23
2019-02-18T02:13:50.547Z,3.50
2019-02-18T02:16:38.833Z,3.70
2019-02-18T02:19:26.805Z,3.57
2019-02-18T02:22:15.001Z,3.30
2019-02-18T02:25:02.888Z,4.30
2019-02-18T02:27:51.101Z,3.77
2019-02-18T02:30:39.054Z,3.90
2019-02-18T02:33:26.967Z,3.30
2019-02-18T02:36:15.151Z,3.67
2019-02-18T02:39:03.920Z,2.67
2019-02-18T02:41:52.052Z,2.97
2019-02-18T02:44:40.194Z,3.30
2019-02-18T02:47:28.012Z,2.80
2019-02-18T02:50:16.047Z,3.10
2019-02-18T02:53:02.998Z,3.53
2019-02-18T02:55:50.783Z,2.90
2019-02-18T02:58:38.614Z,2.40
2019-02-18T03:01:26.697Z,2.33
2019-02-18T03:04:14.555Z,2.83
2019-02-18T03:07:02.647Z,3.60
2019-02-18T03:09:50.602Z,4.03
2019-02-18T03:12:39.012Z,4.13
2019-02-18T03:15:27.067Z,4.53
2019-02-18T03:18:15.308Z,4.93
2019-02-18T03:21:03.241Z,5.13
2019-02-18T03:23:51.597Z,4.63
2019-02-18T03:26:39.531Z,4.07
2019-02-18T03:30:03.703Z,4.70
2019-02-18T03:32:55.462Z,3.90
2019-02-18T03:35:43.332Z,3.97
2019-02-18T03:38:32.172Z,3.90
2019-02-18T03:41:20.270Z,4.03
2019-02-18T03:44:08.411Z,3.67
2019-02-18T03:46:56.504Z,4.33
2019-02-18T03:49:44.334Z,3.60
2019-02-18T03:52:31.989Z,4.13
2019-02-18T03:55:20.372Z,3.93
2019-02-18T03:58:08.556Z,3.90
2019-02-18T04:00:56.160Z,4.27
2019-02-18T04:03:44.037Z,3.93
2019-02-18T04:06:31.987Z,3.77
2019-02-18T04:09:19.897Z,3.43
2019-02-18T04:12:07.837Z,4.20
2019-02-18T04:14:56.155Z,3.53
2019-02-18T04:17:44.518Z,3.63
2019-02-18T04:20:32.313Z,3.97
2019-02-18T04:23:20.241Z,3.90
2019-02-18T04:26:08.112Z,3.37
2019-02-18T04:28:56.526Z,3.50
2019-02-18T04:31:44.466Z,4.03
2019-02-18T04:34:32.163Z,4.17
2019-02-18T04:37:20.037Z,4.37
2019-02-18T04:40:08.240Z,4.10
2019-02-18T04:42:56.345Z,3.30
2019-02-18T04:45:44.339Z,3.80
2019-02-18T04:48:32.631Z,3.97
2019-02-18T04:51:20.789Z,2.57
2019-02-18T04:54:08.855Z,2.33
2019-02-18T04:56:56.584Z,2.70
2019-02-18T04:59:44.754Z,2.90
2019-02-18T05:02:32.426Z,2.57
2019-02-18T05:05:20.459Z,2.20
2019-02-18T05:08:08.265Z,2.10
2019-02-18T05:10:56.473Z,2.53
2019-02-18T05:13:45.939Z,2.47
2019-02-18T05:16:34.123Z,2.50
2019-02-18T05:19:23.040Z,2.47
2019-02-18T05:22:11.032Z,2.10
2019-02-18T05:24:58.924Z,2.27
2019-02-18T05:27:46.942Z,2.03
2019-02-18T05:30:35.091Z,2.30
2019-02-18T05:33:23.268Z,2.77
2019-02-18T05:36:11.092Z,2.47
2019-02-18T05:38:59.043Z,2.70
2019-02-18T05:41:47.230Z,3.07
2019-02-18T05:44:34.912Z,2.53
2019-02-18T05:47:23.012Z,2.73
2019-02-18T05:50:11.110Z,2.80
2019-02-18T05:52:59.071Z,2.70
2019-02-18T05:55:46.894Z,3.20
2019-02-18T05:58:35.075Z,3.17
2019-02-18T06:01:23.422Z,2.63
2019-02-18T06:04:11.563Z,3.50
2019-02-18T06:06:59.180Z,2.60
2019-02-18T06:09:47.052Z,2.80
2019-02-18T06:12:35.735Z,2.50
2019-02-18T06:15:23.968Z,2.87
2019-02-18T06:18:11.765Z,2.77
2019-02-18T06:20:59.699Z,2.90
2019-02-18T06:23:47.876Z,2.90
2019-02-18T06:26:36.163Z,2.80
2019-02-18T06:29:24.005Z,2.73
2019-02-18T06:32:12.200Z,2.80
2019-02-18T06:34:59.834Z,2.50
2019-02-18T06:37:47.983Z,3.03
2019-02-18T06:40:35.894Z,3.10
2019-02-18T06:43:23.774Z,2.67
2019-02-18T06:46:37.248Z,2.93
2019-02-18T06:49:26.612Z,2.50
2019-02-18T06:52:14.536Z,2.90
2019-02-18T06:55:02.603Z,3.00
2019-02-18T06:58:18.526Z,2.60
2019-02-18T07:01:13.947Z,2.70
2019-02-18T07:04:20.515Z,2.97
2019-02-18T07:07:23.345Z,3.10
2019-02-18T07:10:20.055Z,3.27
2019-02-18T07:13:07.663Z,2.83
2019-02-18T07:15:55.802Z,3.17
2019-02-18T07:18:44.244Z,3.53
2019-02-18T07:21:32.272Z,2.87
2019-02-18T07:24:20.194Z,2.73
2019-02-18T10:32:37.187Z,3.10
2019-02-18T10:35:26.519Z,2.23
2019-02-18T10:38:14.287Z,2.27
2019-02-18T10:41:06.823Z,2.10
2019-02-18T10:43:54.686Z,2.53
2019-02-18T10:46:41.850Z,2.97
2019-02-18T10:49:29.713Z,2.20
2019-02-18T10:52:17.599Z,2.53
2019-02-18T10:55:06.036Z,2.67
2019-02-18T10:57:54.724Z,2.67
2019-02-18T11:00:42.852Z,2.67
2019-02-18T11:03:30.387Z,2.67
2019-02-18T11:06:18.440Z,4.10
2019-02-18T11:09:09.515Z,3.43
2019-02-18T11:11:57.489Z,4.47
2019-02-18T11:14:44.989Z,4.40
2019-02-18T11:17:38.827Z,5.00
2019-02-18T11:20:22.830Z,6.57
2019-02-18T11:23:11.049Z,7.73
2019-02-18T11:25:58.987Z,7.53
2019-02-18T11:28:46.846Z,7.27
2019-02-18T11:31:34.967Z,7.13
2019-02-18T11:34:23.098Z,7.87
2019-02-18T11:37:11.067Z,7.73
2019-02-18T11:39:58.734Z,6.80
2019-02-18T11:42:47.000Z,6.83
2019-02-18T11:45:35.306Z,7.40
2019-02-18T11:48:23.137Z,7.07
2019-02-18T11:51:11.209Z,7.83
2019-02-18T11:53:59.410Z,7.63
2019-02-18T11:56:47.692Z,7.30
2019-02-18T11:59:35.227Z,8.47
2019-02-18T12:02:22.843Z,7.87
2019-02-18T12:05:12.266Z,7.27
2019-02-18T12:08:00.174Z,8.50
2019-02-18T12:10:48.405Z,8.23
2019-02-18T12:13:36.966Z,9.13
2019-02-18T12:16:25.094Z,8.77
2019-02-18T12:19:13.182Z,9.97
2019-02-18T12:22:01.614Z,8.90
2019-02-18T12:24:49.783Z,7.80
2019-02-18T12:27:37.887Z,8.77
2019-02-18T12:30:25.444Z,8.67
2019-02-18T12:33:14.521Z,8.63
2019-02-18T12:36:02.630Z,9.03
2019-02-18T12:38:50.440Z,8.87
2019-02-18T12:41:47.974Z,8.93
2019-02-18T12:44:27.913Z,7.87
2019-02-18T12:47:16.223Z,8.20
2019-02-18T12:50:04.616Z,9.00
2019-02-18T12:52:52.606Z,8.80
2019-02-18T12:55:40.913Z,8.70
2019-02-18T12:58:28.979Z,9.37
2019-02-18T13:01:17.197Z,9.30
2019-02-18T13:04:05.022Z,8.93
2019-02-18T13:06:53.346Z,8.77
2019-02-18T13:09:41.608Z,8.70
2019-02-18T13:12:29.539Z,8.50
2019-02-18T13:15:17.533Z,9.17
2019-02-18T13:18:05.828Z,8.03
2019-02-18T13:20:54.116Z,9.50
2019-02-18T13:23:42.072Z,9.27
2019-02-18T13:26:29.675Z,9.63
2019-02-18T13:29:17.631Z,8.90
2019-02-18T13:32:05.625Z,8.60
2019-02-18T13:34:53.624Z,9.27
2019-02-18T13:37:41.854Z,10.13
2019-02-18T13:40:29.623Z,9.27
2019-02-18T13:43:17.541Z,9.87
2019-02-18T13:46:05.326Z,9.47
2019-02-18T13:48:52.966Z,10.77
2019-02-18T13:51:41.178Z,10.17
2019-02-18T13:54:28.774Z,10.47
2019-02-18T13:57:16.661Z,10.20
2019-02-18T14:00:04.786Z,10.43
2019-02-18T14:02:52.991Z,10.13
2019-02-18T14:05:41.399Z,10.00
2019-02-18T14:08:29.367Z,10.07
2019-02-18T14:11:17.636Z,9.83
2019-02-18T14:14:05.596Z,10.30
2019-02-18T14:16:53.592Z,10.13
2019-02-18T14:19:41.467Z,10.17
2019-02-18T14:22:29.472Z,10.00
2019-02-18T14:25:17.502Z,10.23
2019-02-18T14:28:05.797Z,9.73
2019-02-18T14:30:53.735Z,9.20
2019-02-18T14:33:41.829Z,9.33
2019-02-18T14:36:30.077Z,9.27
2019-02-18T14:39:24.175Z,9.40
2019-02-18T14:42:12.344Z,9.73
2019-02-18T14:45:00.964Z,9.63
2019-02-18T14:47:48.854Z,8.60
2019-02-18T14:50:36.713Z,9.90
2019-02-18T14:53:24.975Z,9.33
2019-02-18T14:56:15.081Z,9.43
2019-02-18T14:59:03.020Z,9.70
2019-02-18T15:01:51.122Z,9.60
2019-02-18T15:04:39.187Z,9.73
2019-02-18T15:07:27.162Z,9.27
2019-02-18T15:10:15.871Z,7.60
2019-02-18T15:13:03.895Z,10.30
2019-02-18T15:15:52.025Z,9.40
2019-02-18T15:18:40.046Z,9.47
2019-02-18T15:21:28.365Z,8.93
2019-02-18T15:24:16.615Z,9.63
2019-02-18T15:27:04.783Z,8.73
2019-02-18T15:29:53.132Z,8.57
2019-02-18T15:32:41.995Z,8.53
2019-02-18T15:35:29.798Z,8.50
2019-02-18T15:38:17.812Z,8.33
2019-02-18T15:41:05.804Z,8.47
2019-02-18T15:43:53.737Z,7.50
2019-02-18T15:46:44.590Z,7.83
2019-02-18T15:49:33.815Z,7.80
2019-02-18T15:52:22.018Z,8.50
2019-02-18T15:55:10.518Z,8.70
2019-02-18T15:57:58.366Z,8.67
2019-02-18T16:00:46.745Z,8.53
2019-02-18T16:03:34.800Z,7.87
2019-02-18T16:06:22.935Z,7.60
2019-02-18T16:09:10.875Z,7.80
2019-02-18T16:11:59.162Z,7.93
2019-02-18T16:14:47.390Z,7.30
2019-02-18T16:17:35.266Z,7.63
2019-02-18T16:20:23.452Z,7.47
2019-02-18T16:23:11.709Z,7.40
2019-02-18T16:25:59.806Z,7.23
2019-02-18T16:28:47.826Z,7.03
2019-02-18T16:31:35.892Z,6.93
2019-02-18T16:34:24.142Z,7.13
2019-02-18T16:37:12.367Z,7.53
2019-02-18T16:40:00.392Z,7.00
2019-02-18T16:42:48.160Z,7.53
2019-02-18T16:45:36.797Z,7.93
2019-02-18T16:48:25.631Z,6.90
2019-02-18T16:51:13.979Z,7.40
2019-02-18T16:54:02.105Z,7.07
2019-02-18T16:56:49.645Z,7.90
2019-02-18T16:59:37.817Z,7.47
2019-02-18T17:02:25.691Z,7.13
2019-02-18T17:05:13.920Z,7.33
2019-02-18T17:08:01.553Z,8.03
2019-02-18T17:10:49.782Z,7.33
2019-02-18T17:13:37.859Z,7.37
2019-02-18T17:16:26.038Z,7.37
2019-02-18T17:19:13.971Z,7.37
2019-02-18T17:22:02.000Z,7.60
2019-02-18T17:24:49.517Z,7.00
2019-02-18T17:27:37.433Z,6.60
2019-02-18T17:30:25.639Z,7.53
2019-02-18T17:33:13.660Z,7.90
2019-02-18T17:36:01.439Z,7.77
2019-02-18T17:38:49.049Z,6.93
2019-02-18T17:41:36.938Z,7.30
2019-02-18T17:44:25.406Z,7.50
2019-02-18T17:47:13.334Z,7.30
2019-02-18T17:50:01.302Z,8.67
2019-02-18T17:52:49.126Z,7.47
2019-02-18T17:55:37.465Z,8.10
2019-02-18T17:58:25.435Z,7.53
2019-02-18T18:01:13.068Z,7.93
2019-02-18T18:04:01.000Z,8.00
2019-02-18T18:06:49.099Z,7.93
2019-02-18T18:09:36.971Z,8.53
2019-02-18T18:12:24.756Z,7.63
2019-02-18T18:15:13.111Z,8.03
2019-02-18T18:18:01.265Z,7.73
2019-02-18T18:20:49.191Z,7.70
2019-02-18T18:23:37.447Z,8.00
2019-02-18T18:26:25.547Z,7.73
2019-02-18T18:29:13.502Z,8.77
2019-02-18T18:32:01.579Z,8.70
2019-02-18T18:34:49.487Z,8.00
2019-02-18T18:37:37.509Z,9.33
2019-02-18T18:40:25.651Z,7.97
2019-02-18T18:43:13.615Z,8.50
2019-02-18T18:46:01.797Z,8.07
2019-02-18T18:48:50.085Z,7.83
2019-02-18T18:51:38.314Z,8.63
2019-02-18T18:54:26.891Z,8.73
2019-02-18T18:57:15.248Z,8.63
2019-02-18T19:00:04.895Z,7.03
2019-02-18T19:02:52.863Z,8.13
2019-02-18T19:05:41.467Z,8.10
2019-02-18T19:08:29.895Z,7.93
2019-02-18T19:11:17.983Z,8.70
2019-02-18T19:14:06.064Z,8.00
2019-02-18T19:16:54.166Z,8.30
2019-02-18T19:19:42.226Z,8.10
2019-02-18T19:22:30.072Z,8.27
2019-02-18T19:25:18.489Z,8.57
2019-02-18T19:28:06.767Z,8.00
2019-02-18T19:30:54.990Z,8.13
2019-02-18T19:33:42.881Z,9.00
2019-02-18T19:36:32.329Z,7.90
2019-02-18T19:39:20.407Z,8.70
2019-02-18T19:42:08.361Z,8.27
2019-02-18T19:44:56.274Z,8.10
2019-02-18T19:47:44.181Z,8.07
2019-02-18T19:50:31.809Z,8.13
2019-02-18T19:53:20.071Z,9.70
2019-02-18T19:56:08.028Z,7.87
2019-02-18T19:58:56.208Z,8.03
2019-02-18T20:01:44.857Z,9.50
2019-02-18T20:04:32.848Z,8.63
2019-02-18T20:07:20.996Z,9.20
2019-02-18T20:10:09.465Z,10.33
2019-02-18T20:12:57.250Z,8.53
2019-02-18T20:15:47.560Z,8.87
2019-02-18T20:18:35.930Z,9.33
2019-02-18T20:21:24.303Z,9.43
2019-02-18T20:24:12.360Z,9.97
2019-02-18T20:27:00.883Z,10.03
2019-02-18T20:29:49.108Z,8.70
2019-02-18T20:32:37.485Z,9.40
2019-02-18T20:35:25.579Z,10.27
2019-02-18T20:38:13.225Z,9.87
2019-02-18T20:41:01.369Z,9.60
2019-02-18T20:43:49.449Z,9.70
2019-02-18T20:46:37.296Z,8.63
2019-02-18T20:49:25.125Z,8.80
2019-02-18T20:52:13.607Z,8.57
2019-02-18T20:55:01.788Z,8.30
2019-02-18T20:57:49.835Z,9.37
2019-02-18T21:00:37.878Z,9.00
2019-02-18T21:03:26.133Z,10.20
2019-02-18T21:06:14.132Z,9.07
2019-02-18T21:09:02.003Z,9.10
2019-02-18T21:11:49.951Z,9.10
2019-02-18T21:14:38.153Z,10.20
2019-02-18T21:17:26.816Z,9.87
2019-02-18T21:20:15.316Z,9.70
2019-02-18T21:23:02.859Z,10.43
2019-02-18T21:25:51.127Z,9.97
2019-02-18T21:28:39.355Z,9.60
2019-02-18T21:31:27.422Z,9.10
2019-02-18T21:34:15.710Z,9.00
2019-02-18T21:37:03.369Z,10.23
2019-02-18T21:39:51.248Z,9.47
2019-02-18T21:42:40.941Z,8.90
2019-02-18T21:45:29.261Z,9.47
2019-02-18T21:48:17.751Z,8.93
2019-02-18T21:51:05.951Z,9.53
2019-02-18T21:53:53.757Z,8.80
2019-02-18T21:56:41.633Z,9.37
2019-02-18T21:59:29.965Z,8.97
2019-02-18T22:02:17.907Z,8.93
2019-02-18T22:05:06.045Z,9.23
2019-02-18T22:07:54.176Z,8.60
2019-02-18T22:10:42.111Z,9.00
2019-02-18T22:13:30.262Z,8.97
2019-02-18T22:16:17.834Z,9.50
2019-02-18T22:19:05.854Z,9.47
2019-02-18T22:21:53.927Z,8.33
2019-02-18T22:24:41.868Z,8.57
2019-02-18T22:27:29.951Z,9.77
2019-02-18T22:30:18.075Z,8.90
2019-02-18T22:33:05.959Z,9.10
2019-02-18T22:35:54.326Z,8.70
2019-02-18T22:38:41.905Z,8.50
2019-02-18T22:41:30.100Z,8.93
2019-02-18T22:44:17.949Z,8.63
2019-02-18T22:47:06.095Z,8.53
2019-02-18T22:49:53.934Z,8.83
2019-02-18T22:52:41.705Z,8.40
2019-02-18T22:55:30.087Z,8.30
2019-02-18T22:58:18.205Z,9.43
2019-02-18T23:01:06.773Z,8.57
2019-02-18T23:03:54.397Z,8.70
2019-02-18T23:06:42.400Z,8.77
2019-02-18T23:09:30.070Z,9.57
2019-02-18T23:12:17.989Z,9.23
2019-02-18T23:15:06.335Z,8.27
2019-02-18T23:17:54.221Z,8.83
2019-02-18T23:20:42.069Z,9.33
2019-02-18T23:23:30.598Z,9.57
2019-02-18T23:26:19.073Z,9.77
2019-02-18T23:29:06.585Z,9.00
2019-02-18T23:31:54.650Z,9.87
2019-02-18T23:34:42.518Z,10.20
2019-02-18T23:37:30.805Z,9.67
2019-02-18T23:40:18.837Z,8.43
2019-02-18T23:43:06.687Z,8.50
2019-02-18T23:45:54.548Z,9.47
2019-02-18T23:48:42.334Z,8.37
2019-02-18T23:51:29.939Z,9.30
2019-02-18T23:54:17.816Z,9.20
2019-02-18T23:57:05.623Z,8.87
2019-02-18T23:59:53.663Z,9.40
